CYNR

METAR CYNR 301500Z AUTO 19002KT 7SM 22/16 A3001 RMK AO2 SLP155
METAR
LOCATION
CYNR
DATE - TIME
301500Z
WIND
190 TRUE @ 2 KNOTS
VISIBILITY
7SM
RUNWAY VISUAL RANGE
NOT REPORTED
WEATHER
CLOUDINESS
TEMP / DEWPOINT
22 ºC / 16 ºC
ALTIMETER
30.01 in. Hg
RECENT WEATHER
NOT REPORTED
WIND SHEAR
NOT REPORTED
REMARKS
RMK AO2 SLP155
SEA LEVEL PRESSURE: hPa

CYNR

SPECI CYNR 301406Z AUTO 22003KT 4SM 20/16 A3002 RMK AO2 SLP156
SPECI
LOCATION
CYNR
DATE - TIME
301406Z
WIND
220 TRUE @ 3 KNOTS
VISIBILITY
4SM
RUNWAY VISUAL RANGE
NOT REPORTED
WEATHER
CLOUDINESS
TEMP / DEWPOINT
20 ºC / 16 ºC
ALTIMETER
30.02 in. Hg
RECENT WEATHER
NOT REPORTED
WIND SHEAR
NOT REPORTED
REMARKS
RMK AO2 SLP156
SEA LEVEL PRESSURE: hPa

CYNR

SPECI CYNR 301403Z AUTO 22004KT 2 1/2SM 20/16 A3002 RMK AO2 SLP155
SPECI
LOCATION
CYNR
DATE - TIME
301403Z
WIND
220 TRUE @ 4 KNOTS
VISIBILITY
2 1/2SM
RUNWAY VISUAL RANGE
NOT REPORTED
WEATHER
CLOUDINESS
TEMP / DEWPOINT
20 ºC / 16 ºC
ALTIMETER
30.02 in. Hg
RECENT WEATHER
NOT REPORTED
WIND SHEAR
NOT REPORTED
REMARKS
RMK AO2 SLP155
SEA LEVEL PRESSURE: hPa

Your time UTC time
 
 
Weather data provided by AXYS Technologies Inc., www.axystechnologies.com
 
Station History